createdAt,value
2023-03-05T00:00:23.898Z,28.15
2023-03-05T00:02:51.544Z,26.65
2023-03-05T00:05:19.259Z,27.98
2023-03-05T00:07:48.934Z,26.02
2023-03-05T00:10:17.048Z,26.75
2023-03-05T00:12:44.660Z,27.30
2023-03-05T00:15:12.907Z,25.83
2023-03-05T00:17:40.496Z,27.80
2023-03-05T00:20:09.612Z,26.27
2023-03-05T00:22:37.324Z,27.40
2023-03-05T00:25:07.473Z,28.48
2023-03-05T00:27:35.080Z,27.23
2023-03-05T00:30:02.869Z,27.55
2023-03-05T00:32:30.792Z,27.52
2023-03-05T00:34:58.439Z,27.85
2023-03-05T00:37:26.036Z,29.15
2023-03-05T00:39:53.640Z,30.05
2023-03-05T00:42:22.586Z,30.30
2023-03-05T00:44:50.167Z,28.30
2023-03-05T00:47:18.460Z,27.45
2023-03-05T00:49:46.333Z,29.17
2023-03-05T00:52:13.954Z,28.90
2023-03-05T00:54:41.509Z,29.67
2023-03-05T00:57:09.087Z,29.75
2023-03-05T00:59:38.024Z,28.10
2023-03-05T01:02:05.852Z,30.08
2023-03-05T01:04:33.687Z,32.00
2023-03-05T01:07:01.319Z,28.92
2023-03-05T01:09:28.991Z,31.50
2023-03-05T01:11:56.586Z,29.98
2023-03-05T01:14:24.222Z,30.27
2023-03-05T01:16:53.133Z,30.02
2023-03-05T01:19:20.749Z,28.50
2023-03-05T01:21:48.323Z,30.95
2023-03-05T01:24:15.939Z,31.98
2023-03-05T01:26:43.549Z,29.42
2023-03-05T01:29:11.177Z,30.30
2023-03-05T01:31:38.848Z,29.48
2023-03-05T01:34:07.924Z,30.73
2023-03-05T01:36:35.668Z,31.25
2023-03-05T01:39:03.659Z,28.95
2023-03-05T01:41:31.274Z,29.75
2023-03-05T01:43:58.930Z,28.67
2023-03-05T01:46:29.990Z,29.35
2023-03-05T01:49:20.058Z,26.38
2023-03-05T01:51:55.047Z,27.00
2023-03-05T01:54:24.193Z,31.05
2023-03-05T01:56:53.057Z,28.92
2023-03-05T01:59:20.799Z,27.85
2023-03-05T02:01:53.011Z,28.88
2023-03-05T02:04:23.123Z,27.25
2023-03-05T02:06:52.050Z,30.95
2023-03-05T02:09:23.359Z,30.20
2023-03-05T02:11:51.451Z,28.30
2023-03-05T02:14:20.579Z,29.52
2023-03-05T02:16:48.261Z,29.27
2023-03-05T02:19:15.857Z,29.38
2023-03-05T02:21:46.228Z,29.30
2023-03-05T02:24:14.942Z,30.05
2023-03-05T02:26:44.740Z,31.92
2023-03-05T02:29:14.563Z,32.35
2023-03-05T02:31:42.194Z,33.80
2023-03-05T02:34:09.975Z,32.60
2023-03-05T02:36:37.549Z,30.00
2023-03-05T02:39:06.538Z,29.25
2023-03-05T02:41:34.137Z,30.67
2023-03-05T02:44:01.799Z,29.67
2023-03-05T02:46:29.846Z,28.08
2023-03-05T02:48:57.412Z,29.30
2023-03-05T02:51:25.030Z,27.85
2023-03-05T02:53:52.704Z,27.95
2023-03-05T02:56:21.643Z,28.95
2023-03-05T02:58:49.241Z,30.30
2023-03-05T03:01:16.883Z,30.85
2023-03-05T03:03:44.574Z,30.55
2023-03-05T03:06:12.198Z,30.42
2023-03-05T03:08:39.828Z,31.10
2023-03-05T03:11:09.011Z,32.13
2023-03-05T03:13:38.030Z,30.48
2023-03-05T03:16:06.538Z,30.13
2023-03-05T03:18:34.354Z,31.52
2023-03-05T03:21:02.226Z,31.92
2023-03-05T03:23:30.156Z,31.63
2023-03-05T03:25:58.240Z,32.40
2023-03-05T03:28:26.344Z,32.85
2023-03-05T03:30:55.383Z,32.17
2023-03-05T03:33:23.021Z,30.45
2023-03-05T03:35:50.789Z,31.05
2023-03-05T03:38:18.449Z,31.92
2023-03-05T03:40:46.062Z,31.30
2023-03-05T03:43:13.691Z,31.80
2023-03-05T03:45:42.362Z,28.45
2023-03-05T03:48:11.436Z,31.02
2023-03-05T03:50:39.956Z,28.45
2023-03-05T03:53:07.640Z,31.48
2023-03-05T03:55:35.405Z,33.55
2023-03-05T03:58:03.361Z,31.33
2023-03-05T04:00:31.013Z,31.60
2023-03-05T04:02:58.645Z,31.73
2023-03-05T04:05:27.735Z,30.92
2023-03-05T04:07:55.533Z,30.35
2023-03-05T04:10:23.155Z,32.08
2023-03-05T04:12:50.785Z,30.13
2023-03-05T04:15:18.567Z,31.10
2023-03-05T04:17:46.174Z,31.33
2023-03-05T04:20:14.402Z,32.47
2023-03-05T04:22:43.361Z,31.67
2023-03-05T04:25:11.325Z,33.00
2023-03-05T04:27:40.308Z,31.20
2023-03-05T04:30:09.761Z,33.03
2023-03-05T04:32:37.405Z,31.27
2023-03-05T04:35:05.691Z,32.08
2023-03-05T04:37:33.386Z,33.95
2023-03-05T04:40:02.432Z,32.38
2023-03-05T04:42:30.025Z,30.00
2023-03-05T04:44:57.707Z,31.98
2023-03-05T04:47:25.316Z,32.08
2023-03-05T04:49:53.054Z,31.27
2023-03-05T04:52:20.656Z,33.60
2023-03-05T04:54:48.231Z,34.47
2023-03-05T04:57:17.456Z,31.52
2023-03-05T04:59:45.030Z,34.20
2023-03-05T05:02:12.672Z,34.40
2023-03-05T05:04:40.467Z,32.33
2023-03-05T05:07:08.593Z,32.42
2023-03-05T05:09:36.244Z,33.90
2023-03-05T05:12:03.883Z,31.70
2023-03-05T05:14:32.791Z,30.13
2023-03-05T05:17:01.568Z,33.33
2023-03-05T05:19:29.238Z,32.45
2023-03-05T05:21:56.848Z,38.40
2023-03-05T05:24:24.501Z,33.97
2023-03-05T05:26:52.393Z,41.03
2023-03-05T05:29:19.983Z,36.00
2023-03-05T05:31:49.014Z,37.30
2023-03-05T05:34:17.208Z,33.65
2023-03-05T05:36:44.758Z,35.95
2023-03-05T05:39:12.323Z,30.75
2023-03-05T05:41:39.886Z,34.88
2023-03-05T05:44:07.465Z,31.75
2023-03-05T05:46:35.097Z,32.10
2023-03-05T05:49:04.198Z,32.80
2023-03-05T05:51:31.907Z,33.92
2023-03-05T05:53:59.509Z,33.63
2023-03-05T05:56:28.002Z,32.53
2023-03-05T05:58:55.664Z,31.35
2023-03-05T06:01:25.312Z,35.13
2023-03-05T06:03:53.254Z,34.53
2023-03-05T06:06:24.180Z,30.30
2023-03-05T06:08:52.293Z,32.63
2023-03-05T06:11:20.451Z,32.60
2023-03-05T06:13:48.572Z,32.75
2023-03-05T06:16:18.464Z,33.95
2023-03-05T06:18:46.259Z,33.45
2023-03-05T06:21:16.150Z,33.05
2023-03-05T06:23:46.257Z,33.65
2023-03-05T06:26:15.741Z,31.35
2023-03-05T06:28:43.418Z,32.33
2023-03-05T06:31:12.861Z,31.88
2023-03-05T06:33:42.143Z,31.60
2023-03-05T06:36:11.536Z,30.02
2023-03-05T06:38:39.418Z,31.58
2023-03-05T06:41:11.529Z,31.92
2023-03-05T06:46:08.701Z,30.33
2023-03-05T06:48:36.378Z,29.95
2023-03-05T06:51:04.197Z,32.67
2023-03-05T06:53:32.019Z,29.63
2023-03-05T06:56:02.159Z,32.97
2023-03-05T06:58:31.183Z,32.50
2023-03-05T07:00:58.852Z,31.20
2023-03-05T07:03:26.489Z,30.63
2023-03-05T07:05:54.080Z,32.10
2023-03-05T07:08:21.688Z,30.67
2023-03-05T07:10:49.284Z,28.95
2023-03-05T07:13:16.904Z,27.63
2023-03-05T07:15:45.862Z,28.98
2023-03-05T07:18:13.527Z,26.15
2023-03-05T07:20:41.401Z,25.48
2023-03-05T07:23:09.025Z,24.90
2023-03-05T07:25:37.339Z,26.45
2023-03-05T07:28:05.411Z,23.27
2023-03-05T07:30:33.114Z,23.48
2023-03-05T07:33:02.079Z,24.48
2023-03-05T07:35:29.720Z,24.27
2023-03-05T07:37:57.323Z,24.52
2023-03-05T07:40:25.026Z,23.70
2023-03-05T07:42:54.139Z,23.98
2023-03-05T07:45:21.735Z,23.35
2023-03-05T07:47:51.067Z,24.15
2023-03-05T07:50:21.414Z,21.40
2023-03-05T07:52:49.011Z,21.40
2023-03-05T07:55:16.644Z,22.77
2023-03-05T07:57:44.277Z,23.77
2023-03-05T08:00:13.092Z,24.50
2023-03-05T08:02:40.721Z,26.13
2023-03-05T08:05:08.945Z,23.35
2023-03-05T08:07:37.849Z,21.63
2023-03-05T08:10:06.294Z,21.90
2023-03-05T08:12:33.955Z,23.52
2023-03-05T08:15:01.525Z,23.25
2023-03-05T08:17:29.133Z,21.17
2023-03-05T08:20:00.121Z,22.95
2023-03-05T08:22:27.864Z,22.13
2023-03-05T08:24:56.805Z,22.23
2023-03-05T08:27:24.568Z,22.33
2023-03-05T08:29:52.130Z,21.67
2023-03-05T08:32:19.811Z,22.45
2023-03-05T08:34:47.416Z,20.70
2023-03-05T08:37:15.059Z,22.85
2023-03-05T08:39:42.640Z,23.40
2023-03-05T08:42:11.561Z,20.45
2023-03-05T08:44:39.151Z,19.90
2023-03-05T08:47:06.979Z,21.67
2023-03-05T08:49:34.596Z,18.30
2023-03-05T08:52:02.193Z,20.15
2023-03-05T08:54:29.801Z,20.80
2023-03-05T08:56:57.365Z,20.85
2023-03-05T08:59:26.334Z,20.92
2023-03-05T09:01:54.035Z,20.13
2023-03-05T09:04:21.772Z,20.77
2023-03-05T09:06:49.337Z,21.13
2023-03-05T09:09:16.952Z,21.45
2023-03-05T09:11:44.585Z,19.92
2023-03-05T09:14:12.266Z,19.33
2023-03-05T09:16:41.582Z,20.60
2023-03-05T09:19:10.664Z,22.38
2023-03-05T09:21:38.333Z,21.58
2023-03-05T09:24:06.115Z,21.75
2023-03-05T09:26:33.766Z,21.73
2023-03-05T09:29:01.335Z,22.50
2023-03-05T09:31:29.136Z,22.23
2023-03-05T09:33:58.094Z,20.92
2023-03-05T09:36:27.466Z,24.02
2023-03-05T09:38:55.198Z,24.52
2023-03-05T09:41:31.848Z,21.60
2023-03-05T09:44:08.797Z,23.38
2023-03-05T09:46:44.926Z,21.35
2023-03-05T09:49:17.715Z,24.58
2023-03-05T09:51:47.619Z,22.23
2023-03-05T09:54:18.682Z,23.00
2023-03-05T09:56:48.906Z,16.27
2023-03-05T09:59:23.655Z,23.13
2023-03-05T10:01:53.460Z,23.70
2023-03-05T10:04:25.839Z,23.30
2023-03-05T10:06:58.095Z,23.00
2023-03-05T10:09:40.192Z,23.98
2023-03-05T10:12:11.772Z,27.65
2023-03-05T10:14:40.946Z,23.85
2023-03-05T10:17:47.352Z,26.00
2023-03-05T10:20:24.254Z,23.85
2023-03-05T10:23:05.649Z,25.67
2023-03-05T10:25:47.862Z,26.73
2023-03-05T10:31:00.452Z,24.55
2023-03-05T10:33:33.596Z,25.60
2023-03-05T10:36:14.037Z,25.55
2023-03-05T10:39:01.807Z,23.63
2023-03-05T10:41:33.974Z,23.40
2023-03-05T10:46:32.850Z,22.48
2023-03-05T10:49:05.344Z,24.42
2023-03-05T10:51:36.168Z,23.48
2023-03-05T10:54:07.223Z,22.88
2023-03-05T10:56:34.844Z,21.67
2023-03-05T10:59:02.420Z,23.73
2023-03-05T11:02:08.602Z,24.52
2023-03-05T11:04:37.881Z,22.65
2023-03-05T11:07:30.818Z,25.95
2023-03-05T11:10:21.316Z,23.35
2023-03-05T11:12:49.001Z,23.23
2023-03-05T11:15:27.778Z,23.50
2023-03-05T11:18:08.133Z,21.20
2023-03-05T11:20:36.817Z,23.77
2023-03-05T11:23:10.889Z,22.00
2023-03-05T11:25:53.279Z,21.48
2023-03-05T11:31:07.600Z,21.05
2023-03-05T11:33:36.459Z,22.48
2023-03-05T11:36:25.091Z,21.75
2023-03-05T11:38:56.656Z,22.40
2023-03-05T11:41:34.136Z,21.30
2023-03-05T11:44:04.413Z,20.80
2023-03-05T11:46:38.690Z,22.63
2023-03-05T11:49:07.219Z,20.60
2023-03-05T11:51:42.146Z,20.17
2023-03-05T11:54:17.026Z,21.13
2023-03-05T11:56:45.452Z,20.42
2023-03-05T11:59:16.199Z,21.83
2023-03-05T12:01:47.876Z,21.02
2023-03-05T12:04:16.407Z,20.67
2023-03-05T12:06:45.897Z,20.70
2023-03-05T12:09:20.018Z,19.20
2023-03-05T12:11:49.818Z,20.00
2023-03-05T12:14:22.339Z,19.55
2023-03-05T12:16:53.328Z,18.70
2023-03-05T12:19:41.237Z,18.70
2023-03-05T12:22:18.305Z,18.88
2023-03-05T12:24:47.478Z,18.42
2023-03-05T12:27:17.315Z,19.17
2023-03-05T12:29:50.397Z,18.95
2023-03-05T12:32:53.597Z,19.15
2023-03-05T12:35:30.108Z,18.30
2023-03-05T12:38:06.148Z,14.80
2023-03-05T12:40:39.715Z,15.10
2023-03-05T12:43:07.578Z,15.02
2023-03-05T12:45:38.028Z,14.15
2023-03-05T12:48:43.656Z,14.10
2023-03-05T12:51:16.425Z,14.65
2023-03-05T12:53:44.044Z,15.25
2023-03-05T12:56:19.954Z,14.10
2023-03-05T12:58:50.326Z,14.50
2023-03-05T13:01:41.374Z,15.10
2023-03-05T13:04:15.838Z,14.18
2023-03-05T13:06:43.599Z,13.55
2023-03-05T13:09:18.130Z,14.65
2023-03-05T13:11:49.577Z,14.98
2023-03-05T13:14:37.155Z,11.65
2023-03-05T13:17:39.162Z,16.00
2023-03-05T13:20:33.948Z,15.93
2023-03-05T13:23:16.079Z,17.42
2023-03-05T13:25:44.035Z,16.55
2023-03-05T13:28:14.686Z,15.88
2023-03-05T13:30:46.399Z,14.93
2023-03-05T13:33:18.917Z,16.02
2023-03-05T13:35:47.435Z,17.48
2023-03-05T13:38:24.729Z,16.70
2023-03-05T13:41:20.507Z,16.42
2023-03-05T13:43:50.698Z,15.93
2023-03-05T13:46:25.437Z,15.52
2023-03-05T13:48:53.046Z,15.68
2023-03-05T13:51:20.735Z,17.50
2023-03-05T13:53:48.625Z,17.08
2023-03-05T13:56:18.941Z,15.95
2023-03-05T13:58:53.240Z,17.95
2023-03-05T14:01:30.011Z,15.77
2023-03-05T14:03:59.005Z,16.13
2023-03-05T14:06:29.583Z,15.68
2023-03-05T14:09:04.367Z,16.45
2023-03-05T14:11:31.985Z,16.50
2023-03-05T14:14:07.562Z,16.10
2023-03-05T14:16:35.351Z,15.57
2023-03-05T14:19:04.816Z,16.92
2023-03-05T14:21:47.538Z,15.50
2023-03-05T14:24:21.424Z,15.43
2023-03-05T14:26:51.672Z,16.55
2023-03-05T14:29:23.608Z,16.63
2023-03-05T14:31:52.994Z,17.67
2023-03-05T14:34:25.616Z,17.20
2023-03-05T14:36:54.891Z,15.27
2023-03-05T14:39:28.777Z,16.95
2023-03-05T14:41:56.463Z,16.20
2023-03-05T14:44:26.522Z,15.63
2023-03-05T14:46:54.148Z,19.08
2023-03-05T14:49:21.780Z,14.88
2023-03-05T14:51:49.455Z,14.52
2023-03-05T14:54:22.023Z,15.23
2023-03-05T14:56:50.093Z,15.38
2023-03-05T14:59:18.109Z,15.50
2023-03-05T15:01:47.150Z,15.20
2023-03-05T15:04:19.043Z,15.60
2023-03-05T15:06:50.594Z,15.88
2023-03-05T15:09:19.721Z,15.18
2023-03-05T15:11:47.686Z,15.20
2023-03-05T15:14:15.292Z,15.98
2023-03-05T15:16:44.384Z,17.90
2023-03-05T15:19:14.009Z,17.10
2023-03-05T15:21:41.641Z,16.80
2023-03-05T15:24:11.271Z,16.50
2023-03-05T15:26:39.234Z,18.98
2023-03-05T15:29:06.841Z,17.35
2023-03-05T15:31:38.516Z,17.35
2023-03-05T15:34:06.461Z,16.92
2023-03-05T15:36:35.433Z,17.40
2023-03-05T15:39:03.204Z,17.58
2023-03-05T15:41:30.785Z,18.33
2023-03-05T15:43:58.395Z,19.10
2023-03-05T15:46:26.034Z,17.33
2023-03-05T15:48:53.709Z,17.67
2023-03-05T15:51:21.335Z,20.02
2023-03-05T15:53:50.281Z,18.80
2023-03-05T15:56:18.397Z,19.80
2023-03-05T15:58:46.251Z,19.17
2023-03-05T16:01:15.648Z,19.85
2023-03-05T16:03:43.286Z,19.67
2023-03-05T16:06:12.424Z,18.83
2023-03-05T16:08:40.401Z,18.55
2023-03-05T16:11:09.471Z,18.98
2023-03-05T16:13:37.299Z,19.15
2023-03-05T16:16:06.290Z,18.55
2023-03-05T16:18:36.027Z,18.63
2023-03-05T16:21:03.643Z,16.95
2023-03-05T16:23:31.337Z,17.17
2023-03-05T16:31:40.633Z,16.40
2023-03-05T16:34:08.373Z,16.52
2023-03-05T16:36:36.061Z,15.20
2023-03-05T16:39:05.424Z,15.45
2023-03-05T16:41:33.546Z,15.60
2023-03-05T16:44:01.222Z,15.13
2023-03-05T16:46:30.170Z,14.63
2023-03-05T16:48:59.621Z,16.25
2023-03-05T16:51:27.749Z,15.32
2023-03-05T16:53:55.888Z,14.75
2023-03-05T16:56:23.636Z,14.60
2023-03-05T16:58:53.359Z,13.90
2023-03-05T17:01:22.501Z,13.68
2023-03-05T17:03:50.808Z,15.25
2023-03-05T17:06:21.987Z,14.35
2023-03-05T17:08:50.815Z,15.88
2023-03-05T17:11:19.196Z,14.90
2023-03-05T17:13:48.963Z,14.27
2023-03-05T17:16:18.236Z,15.73
2023-03-05T17:18:46.316Z,14.70
2023-03-05T17:21:14.053Z,14.25
2023-03-05T17:23:43.784Z,15.98
2023-03-05T17:26:13.554Z,16.80
2023-03-05T17:28:41.344Z,14.05
2023-03-05T17:31:09.589Z,16.80
2023-03-05T17:33:38.274Z,16.65
2023-03-05T17:36:06.820Z,16.08
2023-03-05T17:38:34.452Z,15.18
2023-03-05T17:41:03.892Z,15.82
2023-03-05T17:43:31.566Z,15.93
2023-03-05T17:46:00.765Z,15.18
2023-03-05T17:48:28.601Z,15.82
2023-03-05T17:50:56.537Z,14.43
2023-03-05T17:53:24.192Z,14.70
2023-03-05T17:55:51.922Z,17.67
2023-03-05T17:58:20.975Z,16.92
2023-03-05T18:00:48.728Z,17.02
2023-03-05T18:03:16.437Z,20.58
2023-03-05T18:05:45.300Z,17.55
2023-03-05T18:08:13.342Z,18.23
2023-03-05T18:10:41.073Z,17.83
2023-03-05T18:13:08.762Z,16.10
2023-03-05T18:15:41.725Z,17.52
2023-03-05T18:18:09.487Z,16.85
2023-03-05T18:20:37.828Z,17.20
2023-03-05T18:23:06.880Z,27.10
2023-03-05T18:25:35.290Z,60.42
2023-03-05T18:28:04.718Z,35.85
2023-03-05T18:30:32.653Z,22.58
2023-03-05T18:33:01.768Z,17.83
2023-03-05T18:35:30.005Z,17.05
2023-03-05T18:37:58.395Z,14.98
2023-03-05T18:40:27.478Z,17.70
2023-03-05T18:42:55.554Z,17.00
2023-03-05T18:45:24.086Z,15.68
2023-03-05T18:47:54.096Z,18.27
2023-03-05T18:50:25.534Z,15.85
2023-03-05T18:52:53.765Z,17.00
2023-03-05T18:55:23.719Z,17.40
2023-03-05T18:57:51.877Z,18.55
2023-03-05T19:00:21.519Z,17.70
2023-03-05T19:02:49.395Z,18.40
2023-03-05T19:05:18.054Z,16.33
2023-03-05T19:07:47.396Z,16.80
2023-03-05T19:10:16.422Z,16.63
2023-03-05T19:12:49.904Z,17.42
2023-03-05T19:15:17.958Z,15.93
2023-03-05T19:17:45.916Z,15.75
2023-03-05T19:20:15.977Z,16.48
2023-03-05T19:22:43.990Z,17.02
2023-03-05T19:25:13.688Z,15.95
2023-03-05T19:27:41.434Z,17.65
2023-03-05T19:30:11.209Z,17.98
2023-03-05T19:32:38.930Z,16.52
2023-03-05T19:35:07.503Z,15.82
2023-03-05T19:37:35.194Z,17.52
2023-03-05T19:40:02.849Z,18.60
2023-03-05T19:42:31.883Z,18.02
2023-03-05T19:45:00.248Z,19.17
2023-03-05T19:47:27.911Z,17.83
2023-03-05T19:49:55.689Z,19.63
2023-03-05T19:52:23.712Z,18.17
2023-03-05T19:54:51.474Z,18.73
2023-03-05T19:57:19.085Z,18.35
2023-03-05T19:59:48.031Z,18.48
2023-03-05T20:02:19.350Z,18.55
2023-03-05T20:04:47.037Z,13.73
2023-03-05T20:07:14.656Z,18.60
2023-03-05T20:09:42.407Z,22.38
2023-03-05T20:12:10.344Z,21.48
2023-03-05T20:14:38.152Z,20.35
2023-03-05T20:17:07.157Z,22.30
2023-03-05T20:19:34.992Z,20.63
2023-03-05T20:22:02.711Z,20.40
2023-03-05T20:24:30.443Z,22.23
2023-03-05T20:26:58.070Z,22.75
2023-03-05T20:29:25.668Z,21.63
2023-03-05T20:31:56.362Z,19.17
2023-03-05T20:34:27.006Z,19.63
2023-03-05T20:36:54.860Z,19.00
2023-03-05T20:39:22.575Z,20.95
2023-03-05T20:41:51.197Z,22.42
2023-03-05T20:44:18.832Z,23.27
2023-03-05T20:46:52.527Z,26.00
2023-03-05T20:49:20.931Z,26.80
2023-03-05T20:51:51.081Z,22.42
2023-03-05T20:54:18.751Z,24.42
2023-03-05T20:56:46.412Z,27.05
2023-03-05T20:59:14.107Z,38.33
2023-03-05T21:01:41.972Z,56.47
2023-03-05T21:04:09.997Z,71.10
2023-03-05T21:06:37.965Z,49.85
2023-03-05T21:09:07.011Z,34.00
2023-03-05T21:11:35.796Z,23.05
2023-03-05T21:14:03.435Z,21.00
2023-03-05T21:16:31.176Z,19.92
2023-03-05T21:18:59.135Z,20.17
2023-03-05T21:21:26.815Z,25.08
2023-03-05T21:23:55.402Z,23.60
2023-03-05T21:26:24.424Z,28.15
2023-03-05T21:28:52.076Z,25.30
2023-03-05T21:31:21.234Z,25.40
2023-03-05T21:33:49.148Z,24.70
2023-03-05T21:36:18.546Z,21.67
2023-03-05T21:38:46.816Z,22.35
2023-03-05T21:41:14.468Z,22.08
2023-03-05T21:43:43.800Z,21.42
2023-03-05T21:46:11.735Z,22.20
2023-03-05T21:48:39.442Z,22.88
2023-03-05T21:51:08.148Z,20.40
2023-03-05T21:53:35.793Z,20.95
2023-03-05T21:56:20.968Z,21.30
2023-03-05T21:58:50.699Z,21.80
2023-03-05T22:01:20.966Z,19.75
2023-03-05T22:03:48.951Z,20.02
2023-03-05T22:06:18.339Z,19.08
2023-03-05T22:08:47.119Z,18.92
2023-03-05T22:11:16.946Z,20.25
2023-03-05T22:13:44.645Z,18.70
2023-03-05T22:16:22.298Z,19.50
2023-03-05T22:18:50.017Z,18.05
2023-03-05T22:21:18.966Z,17.50
2023-03-05T22:23:46.612Z,18.13
2023-03-05T22:26:14.333Z,19.83
2023-03-05T22:28:42.489Z,20.15
2023-03-05T22:31:10.604Z,20.58
2023-03-05T22:33:39.664Z,20.50
2023-03-05T22:36:11.690Z,21.35
2023-03-05T22:41:09.220Z,19.10
2023-03-05T22:43:37.417Z,17.83
2023-03-05T22:46:11.692Z,17.27
2023-03-05T22:48:40.877Z,18.63
2023-03-05T22:51:09.869Z,16.67
2023-03-05T22:53:37.647Z,16.65
2023-03-05T22:56:08.954Z,18.13
2023-03-05T22:58:36.993Z,20.05
2023-03-05T23:01:05.948Z,21.83
2023-03-05T23:03:33.644Z,20.67
2023-03-05T23:06:02.746Z,17.13
2023-03-05T23:08:30.396Z,18.25
2023-03-05T23:10:58.077Z,17.38
2023-03-05T23:13:25.706Z,16.77
2023-03-05T23:15:53.368Z,16.45
2023-03-05T23:18:20.982Z,16.95
2023-03-05T23:20:48.668Z,17.38
2023-03-05T23:23:17.679Z,18.67
2023-03-05T23:25:45.285Z,16.27
2023-03-05T23:28:13.216Z,17.75
2023-03-05T23:30:40.875Z,18.13
2023-03-05T23:33:09.597Z,16.15
2023-03-05T23:35:38.753Z,18.20
2023-03-05T23:38:08.296Z,16.83
2023-03-05T23:40:39.858Z,18.30
2023-03-05T23:43:07.646Z,15.73
2023-03-05T23:45:35.493Z,16.70
2023-03-05T23:48:03.180Z,16.63
2023-03-05T23:50:32.417Z,15.90
2023-03-05T23:53:02.123Z,16.77
2023-03-05T23:55:32.996Z,16.23
2023-03-05T23:58:02.123Z,16.65
